TimePDT,TemperatureF,Dew PointF,Humidity,Sea Level PressureIn,VisibilityMPH,Wind Direction,Wind SpeedMPH,Gust SpeedMPH,PrecipitationIn,Events,Conditions,WindDirDegrees,DateUTC
12:51 AM,57.0,32.0,39,30.01,10.0,Calm,Calm,-,N/A,,Clear,0,2013-10-07 07:51:00
1:51 AM,57.9,33.1,39,30.00,10.0,Calm,Calm,-,N/A,,Clear,0,2013-10-07 08:51:00
2:51 AM,57.0,32.0,39,29.99,10.0,Calm,Calm,-,N/A,,Clear,0,2013-10-07 09:51:00
3:51 AM,55.9,33.1,42,29.97,10.0,Calm,Calm,-,N/A,,Clear,0,2013-10-07 10:51:00
4:51 AM,54.0,33.1,45,29.96,10.0,ESE,3.5,-,N/A,,Clear,120,2013-10-07 11:51:00
5:51 AM,53.1,33.1,47,29.97,10.0,Calm,Calm,-,N/A,,Clear,0,2013-10-07 12:51:00
6:51 AM,50.0,30.9,48,29.98,10.0,Calm,Calm,-,N/A,,Mostly Cloudy,0,2013-10-07 13:51:00
7:51 AM,54.0,32.0,43,30.01,10.0,Calm,Calm,-,N/A,,Mostly Cloudy,0,2013-10-07 14:51:00
7:58 AM,55.4,33.8,44,30.00,10.0,NE,5.8,-,N/A,,Mostly Cloudy,50,2013-10-07 14:58:00
8:51 AM,57.0,52.0,83,30.02,6.0,Calm,Calm,-,N/A,,Haze,0,2013-10-07 15:51:00
9:22 AM,59.0,53.6,82,30.01,7.0,Calm,Calm,-,N/A,,Scattered Clouds,0,2013-10-07 16:22:00
9:51 AM,62.1,52.0,70,30.02,9.0,Calm,Calm,-,N/A,,Scattered Clouds,0,2013-10-07 16:51:00
10:51 AM,66.9,48.9,52,30.01,10.0,Variable,3.5,-,N/A,,Clear,0,2013-10-07 17:51:00
11:51 AM,70.0,52.0,53,29.99,10.0,WNW,4.6,-,N/A,,Clear,300,2013-10-07 18:51:00
12:51 PM,69.1,52.0,54,29.98,10.0,WNW,8.1,-,N/A,,Clear,300,2013-10-07 19:51:00
1:51 PM,69.1,51.1,53,29.96,10.0,NW,10.4,-,N/A,,Clear,310,2013-10-07 20:51:00
2:51 PM,66.9,50.0,54,29.96,10.0,NW,15.0,-,N/A,,Clear,310,2013-10-07 21:51:00
3:51 PM,66.9,51.1,57,29.96,10.0,NNW,9.2,-,N/A,,Clear,330,2013-10-07 22:51:00
4:51 PM,64.0,52.0,65,29.96,9.0,NW,9.2,-,N/A,,Clear,310,2013-10-07 23:51:00
5:51 PM,63.0,53.1,70,29.95,9.0,NNW,5.8,-,N/A,,Clear,330,2013-10-08 00:51:00
6:51 PM,55.9,51.1,84,29.95,5.0,West,4.6,-,N/A,,Haze,280,2013-10-08 01:51:00
7:51 PM,54.0,50.0,86,29.96,5.0,Calm,Calm,-,N/A,,Partly Cloudy,0,2013-10-08 02:51:00
8:08 PM,55.4,51.8,88,29.96,6.0,WNW,3.5,-,N/A,,Mostly Cloudy,290,2013-10-08 03:08:00
8:38 PM,57.2,53.6,88,29.96,7.0,NW,4.6,-,N/A,,Overcast,310,2013-10-08 03:38:00
8:51 PM,57.9,53.1,84,29.96,7.0,Calm,Calm,-,N/A,,Overcast,0,2013-10-08 03:51:00
9:51 PM,57.9,52.0,81,29.97,7.0,Calm,Calm,-,N/A,,Overcast,0,2013-10-08 04:51:00
10:51 PM,57.0,52.0,83,29.97,8.0,Calm,Calm,-,N/A,,Overcast,0,2013-10-08 05:51:00
11:51 PM,57.0,51.1,81,29.96,7.0,Calm,Calm,-,N/A,,Overcast,0,2013-10-08 06:51:00